sensor_id;sensor_type;location;lat;lon;timestamp;temperature;humidity
69944;DHT22;57257;48.408;-4.498;2022-10-15T00:01:36;16.03;80.45
69944;DHT22;57257;48.408;-4.498;2022-10-15T00:04:02;16.06;80.34
69944;DHT22;57257;48.408;-4.498;2022-10-15T00:06:27;15.98;80.24
69944;DHT22;57257;48.408;-4.498;2022-10-15T00:08:53;15.98;80.27
69944;DHT22;57257;48.408;-4.498;2022-10-15T00:11:21;15.96;80.34
69944;DHT22;57257;48.408;-4.498;2022-10-15T00:13:48;15.96;80.38
69944;DHT22;57257;48.408;-4.498;2022-10-15T00:16:17;15.96;80.53
69944;DHT22;57257;48.408;-4.498;2022-10-15T00:18:43;15.91;80.57
69944;DHT22;57257;48.408;-4.498;2022-10-15T00:21:11;15.93;80.58
69944;DHT22;57257;48.408;-4.498;2022-10-15T00:23:38;15.93;80.67
69944;DHT22;57257;48.408;-4.498;2022-10-15T00:26:06;15.93;80.67
69944;DHT22;57257;48.408;-4.498;2022-10-15T00:28:32;15.94;80.69
69944;DHT22;57257;48.408;-4.498;2022-10-15T00:31:03;15.96;80.72
69944;DHT22;57257;48.408;-4.498;2022-10-15T00:33:30;15.93;80.69
69944;DHT22;57257;48.408;-4.498;2022-10-15T00:36:00;15.96;80.84
69944;DHT22;57257;48.408;-4.498;2022-10-15T00:38:26;15.96;80.78
69944;DHT22;57257;48.408;-4.498;2022-10-15T00:40:51;15.94;80.72
69944;DHT22;57257;48.408;-4.498;2022-10-15T00:43:16;15.94;80.69
69944;DHT22;57257;48.408;-4.498;2022-10-15T00:45:42;15.89;80.57
69944;DHT22;57257;48.408;-4.498;2022-10-15T00:48:07;15.90;80.58
69944;DHT22;57257;48.408;-4.498;2022-10-15T00:50:34;15.86;80.72
69944;DHT22;57257;48.408;-4.498;2022-10-15T00:53:06;15.86;80.70
69944;DHT22;57257;48.408;-4.498;2022-10-15T00:55:34;15.87;80.85
69944;DHT22;57257;48.408;-4.498;2022-10-15T00:58:05;15.89;80.81
69944;DHT22;57257;48.408;-4.498;2022-10-15T01:00:32;15.89;80.85
69944;DHT22;57257;48.408;-4.498;2022-10-15T01:02:58;15.90;80.88
69944;DHT22;57257;48.408;-4.498;2022-10-15T01:05:23;15.94;80.90
69944;DHT22;57257;48.408;-4.498;2022-10-15T01:07:49;15.93;80.93
69944;DHT22;57257;48.408;-4.498;2022-10-15T01:10:16;15.93;80.81
69944;DHT22;57257;48.408;-4.498;2022-10-15T01:15:55;15.87;80.88
69944;DHT22;57257;48.408;-4.498;2022-10-15T01:20:59;15.87;80.90
69944;DHT22;57257;48.408;-4.498;2022-10-15T01:24:22;15.90;80.90
69944;DHT22;57257;48.408;-4.498;2022-10-15T01:29:47;15.91;80.99
69944;DHT22;57257;48.408;-4.498;2022-10-15T01:32:29;15.89;80.90
69944;DHT22;57257;48.408;-4.498;2022-10-15T01:37:51;15.89;80.95
69944;DHT22;57257;48.408;-4.498;2022-10-15T01:43:02;15.91;80.99
69944;DHT22;57257;48.408;-4.498;2022-10-15T01:45:33;15.89;80.84
69944;DHT22;57257;48.408;-4.498;2022-10-15T01:48:07;15.89;80.90
69944;DHT22;57257;48.408;-4.498;2022-10-15T01:50:35;15.89;81.01
69944;DHT22;57257;48.408;-4.498;2022-10-15T01:53:04;15.89;81.15
69944;DHT22;57257;48.408;-4.498;2022-10-15T01:55:33;15.90;80.92
69944;DHT22;57257;48.408;-4.498;2022-10-15T01:58:02;15.89;81.01
69944;DHT22;57257;48.408;-4.498;2022-10-15T02:00:29;15.91;81.07
69944;DHT22;57257;48.408;-4.498;2022-10-15T02:02:59;15.91;81.09
69944;DHT22;57257;48.408;-4.498;2022-10-15T02:05:31;15.93;80.91
69944;DHT22;57257;48.408;-4.498;2022-10-15T02:10:50;15.87;80.77
69944;DHT22;57257;48.408;-4.498;2022-10-15T02:18:35;15.86;80.97
69944;DHT22;57257;48.408;-4.498;2022-10-15T02:21:12;15.86;80.96
69944;DHT22;57257;48.408;-4.498;2022-10-15T02:24:09;15.87;81.01
69944;DHT22;57257;48.408;-4.498;2022-10-15T02:26:36;15.87;80.92
69944;DHT22;57257;48.408;-4.498;2022-10-15T02:29:06;15.87;80.95
69944;DHT22;57257;48.408;-4.498;2022-10-15T02:31:35;15.83;80.98
69944;DHT22;57257;48.408;-4.498;2022-10-15T02:34:07;15.83;81.17
69944;DHT22;57257;48.408;-4.498;2022-10-15T02:36:38;15.86;81.18
69944;DHT22;57257;48.408;-4.498;2022-10-15T02:39:05;15.86;81.31
69944;DHT22;57257;48.408;-4.498;2022-10-15T02:41:34;15.87;81.17
69944;DHT22;57257;48.408;-4.498;2022-10-15T02:44:01;15.87;81.41
69944;DHT22;57257;48.408;-4.498;2022-10-15T02:46:27;15.87;81.41
69944;DHT22;57257;48.408;-4.498;2022-10-15T02:48:52;15.90;81.31
69944;DHT22;57257;48.408;-4.498;2022-10-15T02:51:18;15.91;81.45
69944;DHT22;57257;48.408;-4.498;2022-10-15T02:53:43;15.94;81.45
69944;DHT22;57257;48.408;-4.498;2022-10-15T02:56:08;15.94;81.49
69944;DHT22;57257;48.408;-4.498;2022-10-15T02:58:34;15.96;81.53
69944;DHT22;57257;48.408;-4.498;2022-10-15T03:00:59;15.97;81.61
69944;DHT22;57257;48.408;-4.498;2022-10-15T03:03:24;15.98;81.59
69944;DHT22;57257;48.408;-4.498;2022-10-15T03:05:50;16.03;81.59
69944;DHT22;57257;48.408;-4.498;2022-10-15T03:08:16;16.03;81.58
69944;DHT22;57257;48.408;-4.498;2022-10-15T03:10:41;16.01;81.42
69944;DHT22;57257;48.408;-4.498;2022-10-15T03:13:06;16.01;81.48
69944;DHT22;57257;48.408;-4.498;2022-10-15T03:15:32;15.98;81.35
69944;DHT22;57257;48.408;-4.498;2022-10-15T03:17:58;15.96;81.26
69944;DHT22;57257;48.408;-4.498;2022-10-15T03:20:23;15.91;81.39
69944;DHT22;57257;48.408;-4.498;2022-10-15T03:22:49;15.89;81.34
69944;DHT22;57257;48.408;-4.498;2022-10-15T03:25:14;15.84;81.29
69944;DHT22;57257;48.408;-4.498;2022-10-15T03:27:40;15.83;81.19
69944;DHT22;57257;48.408;-4.498;2022-10-15T03:30:06;15.79;81.14
69944;DHT22;57257;48.408;-4.498;2022-10-15T03:32:31;15.73;81.12
69944;DHT22;57257;48.408;-4.498;2022-10-15T03:34:57;15.71;81.17
69944;DHT22;57257;48.408;-4.498;2022-10-15T03:37:22;15.69;81.24
69944;DHT22;57257;48.408;-4.498;2022-10-15T03:39:48;15.60;81.30
69944;DHT22;57257;48.408;-4.498;2022-10-15T03:42:13;15.60;81.46
69944;DHT22;57257;48.408;-4.498;2022-10-15T03:44:39;15.60;81.37
69944;DHT22;57257;48.408;-4.498;2022-10-15T03:47:04;15.60;81.36
69944;DHT22;57257;48.408;-4.498;2022-10-15T03:49:30;15.59;81.31
69944;DHT22;57257;48.408;-4.498;2022-10-15T03:51:55;15.54;81.35
69944;DHT22;57257;48.408;-4.498;2022-10-15T03:54:20;15.54;81.46
69944;DHT22;57257;48.408;-4.498;2022-10-15T03:56:46;15.56;81.40
69944;DHT22;57257;48.408;-4.498;2022-10-15T03:59:11;15.56;81.48
69944;DHT22;57257;48.408;-4.498;2022-10-15T04:01:37;15.54;81.45
69944;DHT22;57257;48.408;-4.498;2022-10-15T04:04:02;15.53;81.48
69944;DHT22;57257;48.408;-4.498;2022-10-15T04:06:28;15.53;81.50
69944;DHT22;57257;48.408;-4.498;2022-10-15T04:08:53;15.56;81.52
69944;DHT22;57257;48.408;-4.498;2022-10-15T04:11:19;15.54;81.54
69944;DHT22;57257;48.408;-4.498;2022-10-15T04:13:48;15.57;81.66
69944;DHT22;57257;48.408;-4.498;2022-10-15T04:16:14;15.59;81.62
69944;DHT22;57257;48.408;-4.498;2022-10-15T04:18:39;15.59;81.57
69944;DHT22;57257;48.408;-4.498;2022-10-15T04:21:05;15.60;81.60
69944;DHT22;57257;48.408;-4.498;2022-10-15T04:23:30;15.60;81.73
69944;DHT22;57257;48.408;-4.498;2022-10-15T04:25:58;15.59;81.66
69944;DHT22;57257;48.408;-4.498;2022-10-15T04:28:25;15.60;81.77
69944;DHT22;57257;48.408;-4.498;2022-10-15T04:30:55;15.59;81.71
69944;DHT22;57257;48.408;-4.498;2022-10-15T04:33:21;15.60;81.70
69944;DHT22;57257;48.408;-4.498;2022-10-15T04:35:46;15.63;81.67
69944;DHT22;57257;48.408;-4.498;2022-10-15T04:38:11;15.59;81.71
69944;DHT22;57257;48.408;-4.498;2022-10-15T04:40:37;15.56;81.78
69944;DHT22;57257;48.408;-4.498;2022-10-15T04:43:02;15.59;81.77
69944;DHT22;57257;48.408;-4.498;2022-10-15T04:45:28;15.57;81.81
69944;DHT22;57257;48.408;-4.498;2022-10-15T04:47:53;15.53;81.87
69944;DHT22;57257;48.408;-4.498;2022-10-15T04:50:20;15.49;82.01
69944;DHT22;57257;48.408;-4.498;2022-10-15T04:52:46;15.49;82.00
69944;DHT22;57257;48.408;-4.498;2022-10-15T04:55:12;15.49;81.88
69944;DHT22;57257;48.408;-4.498;2022-10-15T04:57:38;15.47;81.83
69944;DHT22;57257;48.408;-4.498;2022-10-15T05:00:04;15.44;81.95
69944;DHT22;57257;48.408;-4.498;2022-10-15T05:02:30;15.43;81.93
69944;DHT22;57257;48.408;-4.498;2022-10-15T05:04:57;15.42;81.87
69944;DHT22;57257;48.408;-4.498;2022-10-15T05:07:22;15.42;81.96
69944;DHT22;57257;48.408;-4.498;2022-10-15T05:09:48;15.38;81.96
69944;DHT22;57257;48.408;-4.498;2022-10-15T05:12:13;15.38;82.00
69944;DHT22;57257;48.408;-4.498;2022-10-15T05:14:38;15.36;81.93
69944;DHT22;57257;48.408;-4.498;2022-10-15T05:17:04;15.35;81.91
69944;DHT22;57257;48.408;-4.498;2022-10-15T05:19:29;15.33;81.95
69944;DHT22;57257;48.408;-4.498;2022-10-15T05:21:55;15.32;82.02
69944;DHT22;57257;48.408;-4.498;2022-10-15T05:24:21;15.33;82.04
69944;DHT22;57257;48.408;-4.498;2022-10-15T05:26:46;15.29;82.06
69944;DHT22;57257;48.408;-4.498;2022-10-15T05:29:12;15.29;82.14
69944;DHT22;57257;48.408;-4.498;2022-10-15T05:31:37;15.30;82.08
69944;DHT22;57257;48.408;-4.498;2022-10-15T05:34:07;15.28;82.07
69944;DHT22;57257;48.408;-4.498;2022-10-15T05:36:33;15.28;81.96
69944;DHT22;57257;48.408;-4.498;2022-10-15T05:39:04;15.26;81.95
69944;DHT22;57257;48.408;-4.498;2022-10-15T05:41:35;15.25;81.97
69944;DHT22;57257;48.408;-4.498;2022-10-15T05:44:00;15.22;81.98
69944;DHT22;57257;48.408;-4.498;2022-10-15T05:46:26;15.19;82.08
69944;DHT22;57257;48.408;-4.498;2022-10-15T05:48:54;15.20;82.09
69944;DHT22;57257;48.408;-4.498;2022-10-15T05:51:20;15.15;82.16
69944;DHT22;57257;48.408;-4.498;2022-10-15T05:53:46;15.18;82.15
69944;DHT22;57257;48.408;-4.498;2022-10-15T05:56:15;15.16;82.10
69944;DHT22;57257;48.408;-4.498;2022-10-15T05:58:41;15.16;82.16
69944;DHT22;57257;48.408;-4.498;2022-10-15T06:01:08;15.18;81.99
69944;DHT22;57257;48.408;-4.498;2022-10-15T06:03:34;15.15;81.91
69944;DHT22;57257;48.408;-4.498;2022-10-15T06:06:00;15.09;81.97
69944;DHT22;57257;48.408;-4.498;2022-10-15T06:08:28;15.09;81.99
69944;DHT22;57257;48.408;-4.498;2022-10-15T06:10:54;15.10;82.06
69944;DHT22;57257;48.408;-4.498;2022-10-15T06:13:21;15.06;82.06
69944;DHT22;57257;48.408;-4.498;2022-10-15T06:15:46;15.03;82.15
69944;DHT22;57257;48.408;-4.498;2022-10-15T06:18:12;15.03;82.14
69944;DHT22;57257;48.408;-4.498;2022-10-15T06:20:41;15.02;82.10
69944;DHT22;57257;48.408;-4.498;2022-10-15T06:23:08;15.01;82.09
69944;DHT22;57257;48.408;-4.498;2022-10-15T06:25:33;15.02;82.12
69944;DHT22;57257;48.408;-4.498;2022-10-15T06:28:04;15.03;82.09
69944;DHT22;57257;48.408;-4.498;2022-10-15T06:30:30;15.02;82.03
69944;DHT22;57257;48.408;-4.498;2022-10-15T06:32:56;15.02;82.12
69944;DHT22;57257;48.408;-4.498;2022-10-15T06:35:22;15.02;82.16
69944;DHT22;57257;48.408;-4.498;2022-10-15T06:37:48;15.02;82.09
69944;DHT22;57257;48.408;-4.498;2022-10-15T06:40:14;15.02;82.05
69944;DHT22;57257;48.408;-4.498;2022-10-15T06:42:40;15.02;82.04
69944;DHT22;57257;48.408;-4.498;2022-10-15T06:45:07;15.01;82.09
69944;DHT22;57257;48.408;-4.498;2022-10-15T06:47:35;15.03;82.01
69944;DHT22;57257;48.408;-4.498;2022-10-15T06:50:01;15.03;82.01
69944;DHT22;57257;48.408;-4.498;2022-10-15T06:52:28;15.05;82.01
69944;DHT22;57257;48.408;-4.498;2022-10-15T06:54:54;15.06;81.97
69944;DHT22;57257;48.408;-4.498;2022-10-15T06:57:19;15.08;81.99
69944;DHT22;57257;48.408;-4.498;2022-10-15T06:59:44;15.10;81.97
69944;DHT22;57257;48.408;-4.498;2022-10-15T07:02:10;15.16;81.94
69944;DHT22;57257;48.408;-4.498;2022-10-15T07:04:36;15.25;81.84
69944;DHT22;57257;48.408;-4.498;2022-10-15T07:07:02;15.30;81.72
69944;DHT22;57257;48.408;-4.498;2022-10-15T07:09:27;15.35;81.52
69944;DHT22;57257;48.408;-4.498;2022-10-15T07:11:53;15.39;81.36
69944;DHT22;57257;48.408;-4.498;2022-10-15T07:14:18;15.49;81.23
69944;DHT22;57257;48.408;-4.498;2022-10-15T07:16:44;15.57;81.09
69944;DHT22;57257;48.408;-4.498;2022-10-15T07:19:09;15.67;80.92
69944;DHT22;57257;48.408;-4.498;2022-10-15T07:21:35;15.77;80.72
69944;DHT22;57257;48.408;-4.498;2022-10-15T07:24:00;15.90;80.47
69944;DHT22;57257;48.408;-4.498;2022-10-15T07:26:26;15.90;80.01
69944;DHT22;57257;48.408;-4.498;2022-10-15T07:28:56;15.80;79.85
69944;DHT22;57257;48.408;-4.498;2022-10-15T07:31:22;15.76;79.79
69944;DHT22;57257;48.408;-4.498;2022-10-15T07:33:48;15.74;80.04
69944;DHT22;57257;48.408;-4.498;2022-10-15T07:36:14;15.80;80.11
69944;DHT22;57257;48.408;-4.498;2022-10-15T07:38:40;15.91;80.00
69944;DHT22;57257;48.408;-4.498;2022-10-15T07:41:07;16.06;79.76
69944;DHT22;57257;48.408;-4.498;2022-10-15T07:43:34;16.17;79.76
69944;DHT22;57257;48.408;-4.498;2022-10-15T07:46:00;16.29;79.34
69944;DHT22;57257;48.408;-4.498;2022-10-15T07:48:26;16.41;79.09
69944;DHT22;57257;48.408;-4.498;2022-10-15T07:50:56;16.45;78.80
69944;DHT22;57257;48.408;-4.498;2022-10-15T07:53:21;16.35;78.39
69944;DHT22;57257;48.408;-4.498;2022-10-15T07:55:47;16.21;78.37
69944;DHT22;57257;48.408;-4.498;2022-10-15T07:58:13;16.18;78.61
69944;DHT22;57257;48.408;-4.498;2022-10-15T08:00:38;16.13;78.58
69944;DHT22;57257;48.408;-4.498;2022-10-15T08:03:04;16.06;78.75
69944;DHT22;57257;48.408;-4.498;2022-10-15T08:05:29;16.04;78.69
69944;DHT22;57257;48.408;-4.498;2022-10-15T08:07:54;15.98;78.70
69944;DHT22;57257;48.408;-4.498;2022-10-15T08:10:20;15.97;78.77
69944;DHT22;57257;48.408;-4.498;2022-10-15T08:12:45;15.91;78.90
69944;DHT22;57257;48.408;-4.498;2022-10-15T08:15:11;15.97;78.77
69944;DHT22;57257;48.408;-4.498;2022-10-15T08:17:36;15.98;78.72
69944;DHT22;57257;48.408;-4.498;2022-10-15T08:20:02;16.06;78.78
69944;DHT22;57257;48.408;-4.498;2022-10-15T08:22:28;16.13;78.73
69944;DHT22;57257;48.408;-4.498;2022-10-15T08:24:53;16.24;78.47
69944;DHT22;57257;48.408;-4.498;2022-10-15T08:27:18;16.27;78.17
69944;DHT22;57257;48.408;-4.498;2022-10-15T08:29:44;16.27;78.17
69944;DHT22;57257;48.408;-4.498;2022-10-15T08:32:11;16.28;78.05
69944;DHT22;57257;48.408;-4.498;2022-10-15T08:34:36;16.28;77.83
69944;DHT22;57257;48.408;-4.498;2022-10-15T08:37:02;16.27;77.74
69944;DHT22;57257;48.408;-4.498;2022-10-15T08:39:27;16.41;77.91
69944;DHT22;57257;48.408;-4.498;2022-10-15T08:41:59;16.54;77.22
69944;DHT22;57257;48.408;-4.498;2022-10-15T08:44:37;16.68;76.75
69944;DHT22;57257;48.408;-4.498;2022-10-15T08:47:07;16.92;76.08
69944;DHT22;57257;48.408;-4.498;2022-10-15T08:54:39;17.19;74.88
69944;DHT22;57257;48.408;-4.498;2022-10-15T08:57:18;17.13;74.37
69944;DHT22;57257;48.408;-4.498;2022-10-15T08:59:55;17.16;74.50
69944;DHT22;57257;48.408;-4.498;2022-10-15T09:02:29;17.16;73.80
69944;DHT22;57257;48.408;-4.498;2022-10-15T09:05:00;17.15;73.80
69944;DHT22;57257;48.408;-4.498;2022-10-15T09:07:46;17.09;73.35
69944;DHT22;57257;48.408;-4.498;2022-10-15T09:10:26;17.12;74.04
69944;DHT22;57257;48.408;-4.498;2022-10-15T09:16:16;17.32;73.22
69944;DHT22;57257;48.408;-4.498;2022-10-15T09:18:46;17.39;72.86
69944;DHT22;57257;48.408;-4.498;2022-10-15T09:21:12;17.43;72.70
69944;DHT22;57257;48.408;-4.498;2022-10-15T09:23:38;17.51;72.70
69944;DHT22;57257;48.408;-4.498;2022-10-15T09:29:02;17.62;72.28
69944;DHT22;57257;48.408;-4.498;2022-10-15T09:31:36;17.70;72.12
69944;DHT22;57257;48.408;-4.498;2022-10-15T09:34:13;17.81;72.23
69944;DHT22;57257;48.408;-4.498;2022-10-15T09:36:50;17.97;72.17
69944;DHT22;57257;48.408;-4.498;2022-10-15T09:39:40;18.05;71.52
69944;DHT22;57257;48.408;-4.498;2022-10-15T09:44:38;18.14;69.97
69944;DHT22;57257;48.408;-4.498;2022-10-15T09:47:31;18.17;70.35
69944;DHT22;57257;48.408;-4.498;2022-10-15T09:49:57;18.24;70.46
69944;DHT22;57257;48.408;-4.498;2022-10-15T09:53:12;18.44;70.61
69944;DHT22;57257;48.408;-4.498;2022-10-15T09:55:45;18.71;70.36
69944;DHT22;57257;48.408;-4.498;2022-10-15T09:58:19;18.79;69.16
69944;DHT22;57257;48.408;-4.498;2022-10-15T10:00:55;18.58;69.35
69944;DHT22;57257;48.408;-4.498;2022-10-15T10:03:23;18.47;69.76
69944;DHT22;57257;48.408;-4.498;2022-10-15T10:05:49;18.28;69.92
69944;DHT22;57257;48.408;-4.498;2022-10-15T10:10:41;18.07;71.00
69944;DHT22;57257;48.408;-4.498;2022-10-15T10:13:17;17.94;71.55
69944;DHT22;57257;48.408;-4.498;2022-10-15T10:15:46;17.93;71.44
69944;DHT22;57257;48.408;-4.498;2022-10-15T10:18:22;17.78;71.36
69944;DHT22;57257;48.408;-4.498;2022-10-15T10:20:55;17.71;71.36
69944;DHT22;57257;48.408;-4.498;2022-10-15T10:23:37;17.60;71.22
69944;DHT22;57257;48.408;-4.498;2022-10-15T10:26:08;17.56;71.82
69944;DHT22;57257;48.408;-4.498;2022-10-15T10:28:42;17.56;72.23
69944;DHT22;57257;48.408;-4.498;2022-10-15T10:31:10;17.59;72.26
69944;DHT22;57257;48.408;-4.498;2022-10-15T10:36:05;17.57;72.90
69944;DHT22;57257;48.408;-4.498;2022-10-15T10:38:34;17.63;73.15
69944;DHT22;57257;48.408;-4.498;2022-10-15T10:41:18;17.71;72.12
69944;DHT22;57257;48.408;-4.498;2022-10-15T10:44:01;17.69;71.75
69944;DHT22;57257;48.408;-4.498;2022-10-15T10:46:27;17.73;71.53
69944;DHT22;57257;48.408;-4.498;2022-10-15T10:48:53;17.88;71.68
69944;DHT22;57257;48.408;-4.498;2022-10-15T10:51:19;17.97;70.51
69944;DHT22;57257;48.408;-4.498;2022-10-15T10:53:58;18.15;70.42
69944;DHT22;57257;48.408;-4.498;2022-10-15T10:56:36;18.12;69.95
69944;DHT22;57257;48.408;-4.498;2022-10-15T11:01:52;18.02;69.82
69944;DHT22;57257;48.408;-4.498;2022-10-15T11:04:30;17.98;69.81
69944;DHT22;57257;48.408;-4.498;2022-10-15T11:07:11;17.98;69.96
69944;DHT22;57257;48.408;-4.498;2022-10-15T11:09:49;17.98;69.81
69944;DHT22;57257;48.408;-4.498;2022-10-15T11:12:27;17.94;69.91
69944;DHT22;57257;48.408;-4.498;2022-10-15T11:15:49;18.02;70.25
69944;DHT22;57257;48.408;-4.498;2022-10-15T11:18:34;18.15;70.17
69944;DHT22;57257;48.408;-4.498;2022-10-15T11:21:16;18.21;69.95
69944;DHT22;57257;48.408;-4.498;2022-10-15T11:29:35;18.34;69.24
69944;DHT22;57257;48.408;-4.498;2022-10-15T11:40:11;18.68;68.30
69944;DHT22;57257;48.408;-4.498;2022-10-15T11:47:58;18.89;65.44
69944;DHT22;57257;48.408;-4.498;2022-10-15T11:56:16;18.85;65.92
69944;DHT22;57257;48.408;-4.498;2022-10-15T12:01:49;18.72;66.78
69944;DHT22;57257;48.408;-4.498;2022-10-15T12:04:23;18.72;67.24
69944;DHT22;57257;48.408;-4.498;2022-10-15T12:06:53;18.75;67.18
69944;DHT22;57257;48.408;-4.498;2022-10-15T12:09:26;18.72;67.22
69944;DHT22;57257;48.408;-4.498;2022-10-15T12:14:40;18.76;67.36
69944;DHT22;57257;48.408;-4.498;2022-10-15T12:19:50;18.91;67.37
69944;DHT22;57257;48.408;-4.498;2022-10-15T12:22:37;19.12;67.56
69944;DHT22;57257;48.408;-4.498;2022-10-15T12:25:04;19.20;66.74
69944;DHT22;57257;48.408;-4.498;2022-10-15T12:27:33;19.20;66.68
69944;DHT22;57257;48.408;-4.498;2022-10-15T12:32:28;19.02;66.74
69944;DHT22;57257;48.408;-4.498;2022-10-15T12:34:56;18.98;67.09
69944;DHT22;57257;48.408;-4.498;2022-10-15T12:37:24;18.98;67.48
69944;DHT22;57257;48.408;-4.498;2022-10-15T12:40:00;19.03;67.26
69944;DHT22;57257;48.408;-4.498;2022-10-15T12:42:31;19.04;66.98
69944;DHT22;57257;48.408;-4.498;2022-10-15T12:45:00;19.12;66.30
69944;DHT22;57257;48.408;-4.498;2022-10-15T12:47:53;19.23;66.38
69944;DHT22;57257;48.408;-4.498;2022-10-15T12:50:27;19.26;65.86
69944;DHT22;57257;48.408;-4.498;2022-10-15T12:52:58;19.31;65.93
69944;DHT22;57257;48.408;-4.498;2022-10-15T12:55:37;19.49;66.13
69944;DHT22;57257;48.408;-4.498;2022-10-15T13:00:33;19.70;64.94
69944;DHT22;57257;48.408;-4.498;2022-10-15T13:03:14;19.91;64.73
69944;DHT22;57257;48.408;-4.498;2022-10-15T13:05:41;20.00;64.07
69944;DHT22;57257;48.408;-4.498;2022-10-15T13:08:18;20.05;63.92
69944;DHT22;57257;48.408;-4.498;2022-10-15T13:10:57;20.25;64.09
69944;DHT22;57257;48.408;-4.498;2022-10-15T13:13:26;20.29;62.98
69944;DHT22;57257;48.408;-4.498;2022-10-15T13:16:07;20.09;63.32
69944;DHT22;57257;48.408;-4.498;2022-10-15T13:18:33;19.98;63.57
69944;DHT22;57257;48.408;-4.498;2022-10-15T13:20:59;19.90;63.51
69944;DHT22;57257;48.408;-4.498;2022-10-15T13:23:30;19.70;63.96
69944;DHT22;57257;48.408;-4.498;2022-10-15T13:26:24;19.41;64.53
69944;DHT22;57257;48.408;-4.498;2022-10-15T13:28:53;19.23;65.38
69944;DHT22;57257;48.408;-4.498;2022-10-15T13:31:23;19.10;66.40
69944;DHT22;57257;48.408;-4.498;2022-10-15T13:33:54;19.06;66.91
69944;DHT22;57257;48.408;-4.498;2022-10-15T13:36:25;19.07;67.52
69944;DHT22;57257;48.408;-4.498;2022-10-15T13:38:59;19.17;66.92
69944;DHT22;57257;48.408;-4.498;2022-10-15T13:41:33;19.30;66.97
69944;DHT22;57257;48.408;-4.498;2022-10-15T13:44:00;19.53;66.88
69944;DHT22;57257;48.408;-4.498;2022-10-15T13:46:32;19.81;65.53
69944;DHT22;57257;48.408;-4.498;2022-10-15T13:48:59;19.84;65.36
69944;DHT22;57257;48.408;-4.498;2022-10-15T13:51:31;19.82;65.24
69944;DHT22;57257;48.408;-4.498;2022-10-15T13:53:58;19.87;64.87
69944;DHT22;57257;48.408;-4.498;2022-10-15T13:56:27;20.00;64.49
69944;DHT22;57257;48.408;-4.498;2022-10-15T13:58:53;19.92;62.17
69944;DHT22;57257;48.408;-4.498;2022-10-15T14:01:21;19.77;62.68
69944;DHT22;57257;48.408;-4.498;2022-10-15T14:03:58;19.71;63.26
69944;DHT22;57257;48.408;-4.498;2022-10-15T14:06:33;19.84;62.83
69944;DHT22;57257;48.408;-4.498;2022-10-15T14:11:35;20.05;62.32
69944;DHT22;57257;48.408;-4.498;2022-10-15T14:14:03;20.28;61.08
69944;DHT22;57257;48.408;-4.498;2022-10-15T14:16:39;21.10;61.13
69944;DHT22;57257;48.408;-4.498;2022-10-15T14:21:32;21.20;57.62
69944;DHT22;57257;48.408;-4.498;2022-10-15T14:24:19;20.87;58.12
69944;DHT22;57257;48.408;-4.498;2022-10-15T14:26:45;20.63;58.97
69944;DHT22;57257;48.408;-4.498;2022-10-15T14:29:28;20.69;59.41
69944;DHT22;57257;48.408;-4.498;2022-10-15T14:31:59;20.82;59.30
69944;DHT22;57257;48.408;-4.498;2022-10-15T14:34:37;21.14;59.60
69944;DHT22;57257;48.408;-4.498;2022-10-15T14:42:33;21.38;58.05
69944;DHT22;57257;48.408;-4.498;2022-10-15T14:45:33;21.30;57.74
69944;DHT22;57257;48.408;-4.498;2022-10-15T14:48:09;20.97;57.62
69944;DHT22;57257;48.408;-4.498;2022-10-15T14:50:40;20.56;58.94
69944;DHT22;57257;48.408;-4.498;2022-10-15T14:53:09;20.36;60.28
69944;DHT22;57257;48.408;-4.498;2022-10-15T14:55:38;20.25;60.65
69944;DHT22;57257;48.408;-4.498;2022-10-15T14:58:07;19.97;61.18
69944;DHT22;57257;48.408;-4.498;2022-10-15T15:00:41;19.81;62.02
69944;DHT22;57257;48.408;-4.498;2022-10-15T15:03:13;19.68;62.02
69944;DHT22;57257;48.408;-4.498;2022-10-15T15:05:48;19.57;62.48
69944;DHT22;57257;48.408;-4.498;2022-10-15T15:08:14;19.44;62.89
69944;DHT22;57257;48.408;-4.498;2022-10-15T15:10:40;19.41;63.27
69944;DHT22;57257;48.408;-4.498;2022-10-15T15:13:28;19.24;64.01
69944;DHT22;57257;48.408;-4.498;2022-10-15T15:15:54;19.19;64.54
69944;DHT22;57257;48.408;-4.498;2022-10-15T15:18:19;19.04;64.97
69944;DHT22;57257;48.408;-4.498;2022-10-15T15:20:47;18.89;65.36
69944;DHT22;57257;48.408;-4.498;2022-10-15T15:23:22;18.77;65.81
69944;DHT22;57257;48.408;-4.498;2022-10-15T15:25:49;18.63;66.26
69944;DHT22;57257;48.408;-4.498;2022-10-15T15:28:17;18.58;66.61
69944;DHT22;57257;48.408;-4.498;2022-10-15T15:30:46;18.63;66.91
69944;DHT22;57257;48.408;-4.498;2022-10-15T15:33:14;18.77;66.95
69944;DHT22;57257;48.408;-4.498;2022-10-15T15:38:14;18.77;66.70
69944;DHT22;57257;48.408;-4.498;2022-10-15T15:40:40;18.71;66.87
69944;DHT22;57257;48.408;-4.498;2022-10-15T15:43:05;18.56;67.17
69944;DHT22;57257;48.408;-4.498;2022-10-15T15:45:30;18.51;67.49
69944;DHT22;57257;48.408;-4.498;2022-10-15T15:47:56;18.44;67.54
69944;DHT22;57257;48.408;-4.498;2022-10-15T15:50:23;18.37;67.51
69944;DHT22;57257;48.408;-4.498;2022-10-15T15:52:48;18.31;67.83
69944;DHT22;57257;48.408;-4.498;2022-10-15T15:55:14;18.29;67.97
69944;DHT22;57257;48.408;-4.498;2022-10-15T15:57:39;18.24;67.53
69944;DHT22;57257;48.408;-4.498;2022-10-15T16:00:07;18.09;67.77
69944;DHT22;57257;48.408;-4.498;2022-10-15T16:02:33;18.05;68.16
69944;DHT22;57257;48.408;-4.498;2022-10-15T16:04:59;18.01;68.46
69944;DHT22;57257;48.408;-4.498;2022-10-15T16:07:26;17.97;68.51
69944;DHT22;57257;48.408;-4.498;2022-10-15T16:09:51;17.98;68.43
69944;DHT22;57257;48.408;-4.498;2022-10-15T16:12:17;17.94;68.41
69944;DHT22;57257;48.408;-4.498;2022-10-15T16:14:42;17.88;68.51
69944;DHT22;57257;48.408;-4.498;2022-10-15T16:17:08;17.76;68.63
69944;DHT22;57257;48.408;-4.498;2022-10-15T16:19:33;17.67;68.83
69944;DHT22;57257;48.408;-4.498;2022-10-15T16:21:59;17.59;69.04
69944;DHT22;57257;48.408;-4.498;2022-10-15T16:24:24;17.54;69.12
69944;DHT22;57257;48.408;-4.498;2022-10-15T16:26:49;17.53;69.43
69944;DHT22;57257;48.408;-4.498;2022-10-15T16:29:15;17.49;69.34
69944;DHT22;57257;48.408;-4.498;2022-10-15T16:31:41;17.46;69.38
69944;DHT22;57257;48.408;-4.498;2022-10-15T16:34:07;17.43;69.77
69944;DHT22;57257;48.408;-4.498;2022-10-15T16:36:32;17.40;69.54
69944;DHT22;57257;48.408;-4.498;2022-10-15T16:38:58;17.37;69.51
69944;DHT22;57257;48.408;-4.498;2022-10-15T16:41:23;17.32;69.59
69944;DHT22;57257;48.408;-4.498;2022-10-15T16:43:49;17.27;69.49
69944;DHT22;57257;48.408;-4.498;2022-10-15T16:46:16;17.20;69.55
69944;DHT22;57257;48.408;-4.498;2022-10-15T16:48:43;17.11;69.68
69944;DHT22;57257;48.408;-4.498;2022-10-15T16:51:14;17.02;69.65
69944;DHT22;57257;48.408;-4.498;2022-10-15T16:53:42;16.93;69.75
69944;DHT22;57257;48.408;-4.498;2022-10-15T16:56:17;16.76;69.49
69944;DHT22;57257;48.408;-4.498;2022-10-15T16:58:43;16.67;69.64
69944;DHT22;57257;48.408;-4.498;2022-10-15T17:01:15;16.59;69.66
69944;DHT22;57257;48.408;-4.498;2022-10-15T17:03:41;16.52;69.53